Cannelton, Indiana
Current Conditions -  °F | °C
As of 3:35 PM on Friday 31 Oct 2014 (Local Time) from KHNB Reporting Station
Broken Clouds Broken Clouds  
Wind Chill: 32°   Ceiling: 5500
Heat Index: 41°   Visibility: 10mi
Dew Point: 34°   Wind: 18mph
Humidity: 76%   Direction: 10°N
Pressure: 30.1"   Gusts: 24mph
Location:  37.91°N, 86.74°W
Report Text: KHNB 312035Z AUTO 01016G21KT 10SM FEW015 SCT039 BKN055 05/01 A3010 RMK AO1
Loading
Personal Weather Stations






























Interactive Weather Map
Tropical Storm Tracking
New forecast layout! Learn more

10-Day Weather Forecast

Advertisements
Track Severe Weather on mobile